createdAt,value
2022-08-23T00:02:26.780Z,92.40
2022-08-23T00:05:07.569Z,92.40
2022-08-23T00:07:42.131Z,92.60
2022-08-23T00:10:11.984Z,92.90
2022-08-23T00:12:39.819Z,93.10
2022-08-23T00:15:09.678Z,93.60
2022-08-23T00:17:37.361Z,93.70
2022-08-23T00:20:07.457Z,93.70
2022-08-23T05:15:08.555Z,99.90
2022-08-23T05:17:36.835Z,99.90
2022-08-23T05:20:06.165Z,99.90
2022-08-23T05:22:34.929Z,99.90
2022-08-23T05:29:57.167Z,96.20
2022-08-23T05:32:24.530Z,95.00
2022-08-23T05:34:51.785Z,93.70
2022-08-23T05:37:19.019Z,92.80
2022-08-23T05:39:46.306Z,92.00
2022-08-23T05:42:15.787Z,91.10
2022-08-23T05:44:44.026Z,90.20
2022-08-23T05:54:40.781Z,81.20
2022-08-23T05:57:09.317Z,81.60
2022-08-23T05:59:36.544Z,80.90
2022-08-23T06:02:04.143Z,79.50
2022-08-23T06:14:21.749Z,72.90
2022-08-23T06:16:54.978Z,72.50
2022-08-23T06:19:24.173Z,71.80
2022-08-23T06:21:52.054Z,74.10
2022-08-23T06:24:20.315Z,77.20
2022-08-23T07:19:20.375Z,92.40
2022-08-23T07:21:48.768Z,92.70
2022-08-23T07:24:18.036Z,92.50
2022-08-23T07:26:47.257Z,92.20
2022-08-23T07:29:15.964Z,92.40
2022-08-23T07:31:49.475Z,92.10
2022-08-23T07:34:17.449Z,92.30
2022-08-23T07:36:46.709Z,92.20
2022-08-23T07:39:15.757Z,92.20
2022-08-23T07:41:44.660Z,92.00
2022-08-23T07:44:13.297Z,91.80
2022-08-23T07:46:46.947Z,91.70
2022-08-23T07:49:14.970Z,91.70
2022-08-23T07:51:46.897Z,91.50
2022-08-23T07:54:15.225Z,91.70
2022-08-23T07:56:42.943Z,91.80
2022-08-23T07:59:11.055Z,91.80
2022-08-23T08:01:41.065Z,91.60
2022-08-23T08:04:08.531Z,91.90
2022-08-23T08:07:04.840Z,92.20
2022-08-23T08:09:37.191Z,91.70
2022-08-23T08:12:04.802Z,91.60
2022-08-23T08:14:32.106Z,92.00
2022-08-23T08:17:04.441Z,92.10
2022-08-23T08:19:31.629Z,91.70
2022-08-23T08:21:58.879Z,91.90
2022-08-23T08:24:26.062Z,92.00
2022-08-23T08:26:53.264Z,91.90
2022-08-23T08:29:20.503Z,91.70
2022-08-23T08:31:54.101Z,91.70
2022-08-23T08:34:24.702Z,91.40
2022-08-23T08:36:55.039Z,91.20
2022-08-23T08:39:25.453Z,91.00
2022-08-23T08:42:30.350Z,91.30
2022-08-23T08:45:09.358Z,90.90
2022-08-23T08:47:51.080Z,91.10
2022-08-23T08:50:24.448Z,90.50
2022-08-23T08:53:00.845Z,90.90
2022-08-23T08:55:38.509Z,90.80
2022-08-23T08:58:07.234Z,90.80
2022-08-23T09:00:38.427Z,90.50
2022-08-23T09:03:12.895Z,90.60
2022-08-23T09:05:52.486Z,90.90
2022-08-23T09:08:41.342Z,90.80
2022-08-23T09:11:35.609Z,90.20
2022-08-23T09:14:27.361Z,90.30
2022-08-23T09:17:01.956Z,90.20
2022-08-23T09:19:33.576Z,90.20
2022-08-23T09:22:10.208Z,90.00
2022-08-23T12:45:22.540Z,99.90
2022-08-23T12:47:59.319Z,99.90
2022-08-23T12:50:39.524Z,99.40
2022-08-23T12:53:11.701Z,98.40
2022-08-23T12:55:45.995Z,98.00
2022-08-23T12:58:16.340Z,98.20
2022-08-23T13:00:54.821Z,98.20
2022-08-23T13:03:24.818Z,98.50
2022-08-23T13:06:02.222Z,99.00
2022-08-23T13:08:37.897Z,99.10
2022-08-23T13:11:08.609Z,99.60
2022-08-23T13:13:39.908Z,99.50
2022-08-23T13:16:36.957Z,99.60
2022-08-23T13:19:31.225Z,98.70
2022-08-23T13:22:19.539Z,98.60
2022-08-23T13:25:27.972Z,99.10
2022-08-23T13:27:59.744Z,98.80
2022-08-23T13:30:34.317Z,99.50
2022-08-23T13:33:07.709Z,99.40
2022-08-23T13:35:39.796Z,99.30
2022-08-23T13:38:07.109Z,99.40
2022-08-23T13:40:55.223Z,99.30
2022-08-23T13:43:29.686Z,99.10
2022-08-23T13:46:10.395Z,99.00
2022-08-23T13:48:43.851Z,98.80
2022-08-23T13:51:41.395Z,99.60
2022-08-23T13:54:14.452Z,99.90
2022-08-23T13:56:56.377Z,99.70
2022-08-23T13:59:31.141Z,99.20
2022-08-23T14:02:11.584Z,99.10
2022-08-23T14:04:39.105Z,98.90
2022-08-23T14:07:07.216Z,98.90
2022-08-23T14:09:34.811Z,99.20
2022-08-23T14:12:06.201Z,99.10
2022-08-23T14:14:38.003Z,99.30
2022-08-23T14:17:06.168Z,98.90
2022-08-23T14:22:25.981Z,99.90
2022-08-23T14:24:53.190Z,99.50
2022-08-23T14:27:20.389Z,99.00
2022-08-23T14:29:47.584Z,98.70
2022-08-23T14:32:14.852Z,99.70
2022-08-23T14:34:42.063Z,99.00
2022-08-23T14:39:56.492Z,99.30
2022-08-23T14:42:24.346Z,99.90
2022-08-23T14:44:51.638Z,99.20
2022-08-23T14:47:19.235Z,99.70
2022-08-23T14:49:47.157Z,99.50
2022-08-23T14:52:15.598Z,99.50
2022-08-23T14:54:42.979Z,99.90
2022-08-23T14:57:10.557Z,99.90
2022-08-23T14:59:37.872Z,99.40
2022-08-23T15:02:08.392Z,99.40
2022-08-23T15:04:35.887Z,99.50
2022-08-23T15:07:21.682Z,99.90
2022-08-23T15:09:51.008Z,99.90
2022-08-23T15:15:12.410Z,99.70
2022-08-23T15:17:58.549Z,99.70
2022-08-23T15:20:32.440Z,99.70
2022-08-23T15:23:05.919Z,99.90
2022-08-23T15:25:37.171Z,99.60
2022-08-23T15:28:12.691Z,99.80
2022-08-23T15:30:41.862Z,99.90
2022-08-23T15:33:10.161Z,99.90
2022-08-23T15:35:43.834Z,99.80
2022-08-23T15:38:13.841Z,99.70
2022-08-23T15:40:41.199Z,99.90
2022-08-23T15:43:08.774Z,99.90
2022-08-23T15:45:37.001Z,99.90
2022-08-23T15:48:14.550Z,99.60
2022-08-23T15:50:45.637Z,99.60
2022-08-23T15:53:13.920Z,99.90
2022-08-23T15:55:42.182Z,99.90
2022-08-23T15:58:18.394Z,99.90
2022-08-23T16:00:46.760Z,99.90
2022-08-23T16:03:19.852Z,99.90
2022-08-23T16:05:52.443Z,99.90
2022-08-23T16:08:26.386Z,99.90
2022-08-23T16:10:54.356Z,99.60
2022-08-23T16:13:28.336Z,99.90
2022-08-23T16:15:55.557Z,99.90
2022-08-23T16:18:23.127Z,99.70
2022-08-23T16:20:54.263Z,99.90
2022-08-23T16:23:22.630Z,99.60
2022-08-23T16:25:50.085Z,99.90
2022-08-23T16:28:17.474Z,99.90
2022-08-23T16:30:44.698Z,99.80
2022-08-23T16:33:12.011Z,99.50
2022-08-23T16:35:39.239Z,99.80
2022-08-23T16:38:06.512Z,99.80
2022-08-23T16:40:33.713Z,99.90
2022-08-23T16:43:01.093Z,99.90
2022-08-23T16:45:28.370Z,99.90
2022-08-23T16:47:55.826Z,99.90
2022-08-23T18:25:26.500Z,99.90
2022-08-23T19:12:17.461Z,99.90
2022-08-23T19:14:44.692Z,99.90
2022-08-23T19:17:11.975Z,99.90
2022-08-23T19:19:39.210Z,99.90
2022-08-23T19:22:06.446Z,99.90
2022-08-23T19:24:33.799Z,99.90
2022-08-23T19:27:01.698Z,99.90
2022-08-23T19:29:28.930Z,99.90
2022-08-23T20:21:24.963Z,91.50
2022-08-23T20:23:52.974Z,91.90
2022-08-23T20:26:20.325Z,92.30
2022-08-23T20:28:59.243Z,92.60
2022-08-23T20:31:33.470Z,92.90
2022-08-23T20:34:00.807Z,92.60
2022-08-23T20:36:28.477Z,92.70
2022-08-23T20:38:57.274Z,92.70
2022-08-23T20:41:30.504Z,92.90
2022-08-23T20:43:58.648Z,92.80
2022-08-23T20:46:26.018Z,93.30
2022-08-23T20:48:54.367Z,93.20
2022-08-23T20:51:21.739Z,93.80
2022-08-23T20:53:48.990Z,93.50
2022-08-23T20:56:17.072Z,93.50
2022-08-23T20:58:44.865Z,93.60
2022-08-23T21:01:12.861Z,93.50
2022-08-23T21:03:40.813Z,93.00
2022-08-23T21:06:30.260Z,92.50
2022-08-23T21:08:59.293Z,92.30
2022-08-23T21:11:28.459Z,92.10
2022-08-23T21:13:56.947Z,92.30
2022-08-23T21:16:25.371Z,91.90
2022-08-23T21:18:55.338Z,92.10
2022-08-23T21:21:24.198Z,92.50
2022-08-23T21:23:51.844Z,92.40
2022-08-23T21:26:19.662Z,92.70
2022-08-23T21:28:46.843Z,92.80
2022-08-23T21:31:21.426Z,92.70
2022-08-23T21:33:48.918Z,92.80
2022-08-23T21:36:17.904Z,93.00
2022-08-23T21:38:45.459Z,93.20
2022-08-23T21:41:27.116Z,93.30
2022-08-23T21:43:54.716Z,93.30
2022-08-23T21:46:21.982Z,93.70
2022-08-23T21:48:49.235Z,93.90
2022-08-23T21:51:16.403Z,94.00
2022-08-23T21:53:43.638Z,94.00
2022-08-23T21:56:10.826Z,94.40
2022-08-23T21:58:38.117Z,93.80
2022-08-23T22:01:05.883Z,93.70
2022-08-23T22:03:36.528Z,93.70
2022-08-23T22:06:05.042Z,93.90
2022-08-23T22:08:32.262Z,94.00
2022-08-23T22:11:04.954Z,94.40
2022-08-23T22:13:32.170Z,94.20
2022-08-23T22:15:59.488Z,94.30
2022-08-23T22:18:27.913Z,94.60
2022-08-23T22:20:55.244Z,94.50
2022-08-23T22:23:22.499Z,94.60
2022-08-23T22:25:49.730Z,94.70
2022-08-23T22:28:16.967Z,94.80
2022-08-23T22:30:44.390Z,94.90
2022-08-23T22:33:11.685Z,94.80
2022-08-23T22:35:39.207Z,94.90
2022-08-23T22:38:14.595Z,95.10
2022-08-23T22:40:52.585Z,95.30
2022-08-23T22:43:20.696Z,95.20
2022-08-23T22:45:53.395Z,94.90
2022-08-23T22:48:21.707Z,94.90
2022-08-23T22:50:49.220Z,94.90
2022-08-23T22:53:17.738Z,95.40
2022-08-23T22:55:50.718Z,94.90
2022-08-23T22:58:18.317Z,95.10
2022-08-23T23:00:45.662Z,95.50
2022-08-23T23:03:12.842Z,95.40
2022-08-23T23:05:40.214Z,95.80
2022-08-23T23:08:07.457Z,95.70
2022-08-23T23:10:34.665Z,95.70
2022-08-23T23:13:01.947Z,95.70
2022-08-23T23:15:29.957Z,95.90
2022-08-23T23:17:57.585Z,96.00
2022-08-23T23:20:24.878Z,96.10
2022-08-23T23:22:52.100Z,96.30
2022-08-23T23:25:19.466Z,96.40
2022-08-23T23:27:46.660Z,96.50
2022-08-23T23:30:14.491Z,96.70
2022-08-23T23:32:43.174Z,96.70
2022-08-23T23:35:11.214Z,96.80
2022-08-23T23:37:38.550Z,96.80
2022-08-23T23:40:07.237Z,96.90
2022-08-23T23:42:34.521Z,96.80
2022-08-23T23:45:01.811Z,96.70
2022-08-23T23:47:29.069Z,97.00
2022-08-23T23:49:56.301Z,97.00
2022-08-23T23:52:23.729Z,97.10
2022-08-23T23:54:52.022Z,97.10
2022-08-23T23:57:19.398Z,96.90
2022-08-23T23:59:46.669Z,97.20
